createdAt,value
2018-11-11T00:00:51.878Z,91.30
2018-11-11T00:03:19.245Z,90.90
2018-11-11T00:05:46.302Z,90.40
2018-11-11T00:08:14.210Z,90.70
2018-11-11T00:10:41.080Z,90.70
2018-11-11T00:13:07.734Z,90.90
2018-11-11T00:15:34.218Z,91.00
2018-11-11T00:18:02.477Z,91.70
2018-11-11T00:20:28.934Z,91.30
2018-11-11T00:22:56.519Z,92.70
2018-11-11T00:25:23.147Z,91.80
2018-11-11T00:27:50.225Z,91.30
2018-11-11T00:30:17.263Z,90.80
2018-11-11T00:32:43.866Z,91.60
2018-11-11T00:35:10.443Z,91.40
2018-11-11T00:37:36.981Z,90.60
2018-11-11T00:40:04.352Z,91.80
2018-11-11T00:42:31.479Z,91.40
2018-11-11T00:44:58.551Z,91.00
2018-11-11T00:47:25.458Z,91.50
2018-11-11T00:49:51.957Z,91.30
2018-11-11T00:52:18.500Z,91.30
2018-11-11T00:54:45.216Z,92.00
2018-11-11T00:57:12.465Z,91.70
2018-11-11T00:59:38.935Z,91.20
2018-11-11T01:02:06.057Z,90.50
2018-11-11T01:04:32.568Z,90.30
2018-11-11T01:07:00.017Z,90.30
2018-11-11T01:09:26.695Z,90.40
2018-11-11T01:11:54.033Z,90.60
2018-11-11T01:14:20.600Z,90.20
2018-11-11T01:16:47.887Z,91.00
2018-11-11T01:19:14.406Z,91.70
2018-11-11T01:21:40.923Z,91.80
2018-11-11T01:24:08.140Z,91.20
2018-11-11T01:26:35.245Z,92.20
2018-11-11T01:29:01.800Z,92.00
2018-11-11T01:34:11.026Z,93.10
2018-11-11T01:36:38.625Z,93.20
2018-11-11T01:39:07.004Z,92.60
2018-11-11T01:41:35.037Z,94.20
2018-11-11T01:44:02.904Z,93.70
2018-11-11T01:46:31.293Z,93.50
2018-11-11T01:48:57.908Z,93.00
2018-11-11T01:51:26.643Z,93.80
2018-11-11T01:53:55.588Z,93.00
2018-11-11T01:56:23.556Z,91.90
2018-11-11T01:58:51.364Z,92.20
2018-11-11T02:01:19.813Z,91.50
2018-11-11T02:03:47.058Z,91.10
2018-11-11T02:06:14.798Z,91.60
2018-11-11T02:08:43.559Z,93.10
2018-11-11T02:11:10.819Z,93.60
2018-11-11T02:13:40.578Z,92.70
2018-11-11T02:16:08.558Z,92.80
2018-11-11T02:18:36.784Z,92.40
2018-11-11T02:23:36.151Z,91.50
2018-11-11T02:26:05.930Z,91.00
2018-11-11T02:28:33.103Z,91.00
2018-11-11T02:31:01.616Z,91.60
2018-11-11T02:33:29.691Z,91.30
2018-11-11T02:35:57.767Z,92.00
2018-11-11T02:38:25.268Z,93.30
2018-11-11T02:40:53.777Z,94.00
2018-11-11T02:43:22.197Z,94.50
2018-11-11T02:45:50.755Z,93.80
2018-11-11T02:48:17.437Z,93.50
2018-11-11T02:50:44.014Z,93.30
2018-11-11T02:53:12.462Z,94.00
2018-11-11T02:55:40.707Z,93.50
2018-11-11T02:58:07.945Z,93.90
2018-11-11T03:00:34.971Z,94.70
2018-11-11T03:03:02.974Z,94.40
2018-11-11T03:05:30.460Z,94.10
2018-11-11T03:07:57.160Z,93.40
2018-11-11T03:12:58.220Z,92.80
2018-11-11T03:15:27.740Z,92.10
2018-11-11T03:17:59.100Z,91.10
2018-11-11T03:20:27.456Z,91.90
2018-11-11T03:22:56.473Z,92.40
2018-11-11T03:25:23.398Z,92.30
2018-11-11T03:27:50.974Z,91.80
2018-11-11T03:30:19.134Z,91.50
2018-11-11T03:32:46.001Z,92.10
2018-11-11T03:35:14.049Z,91.40
2018-11-11T03:37:44.988Z,91.80
2018-11-11T03:40:13.590Z,92.00
2018-11-11T03:42:41.675Z,92.20
2018-11-11T03:45:08.601Z,92.40
2018-11-11T03:47:35.638Z,92.70
2018-11-11T03:50:03.125Z,91.50
2018-11-11T03:52:30.988Z,91.20
2018-11-11T03:54:58.049Z,92.10
2018-11-11T03:57:24.810Z,92.20
2018-11-11T03:59:52.520Z,91.80
2018-11-11T04:02:19.053Z,92.00
2018-11-11T04:04:51.282Z,92.40
2018-11-11T04:07:18.487Z,92.20
2018-11-11T04:09:46.797Z,91.70
2018-11-11T04:12:16.012Z,93.20
2018-11-11T04:14:43.410Z,93.50
2018-11-11T04:17:12.889Z,94.50
2018-11-11T04:22:11.135Z,95.30
2018-11-11T04:24:37.683Z,94.60
2018-11-11T04:27:05.083Z,94.40
2018-11-11T04:29:31.786Z,94.60
2018-11-11T04:31:58.356Z,95.20
2018-11-11T04:34:25.041Z,96.20
2018-11-11T04:36:52.080Z,95.00
2018-11-11T04:39:18.721Z,94.60
2018-11-11T04:41:45.822Z,94.10
2018-11-11T04:44:12.338Z,93.20
2018-11-11T04:46:38.831Z,95.80
2018-11-11T04:49:05.972Z,95.40
2018-11-11T04:54:05.462Z,94.70
2018-11-11T04:56:32.221Z,93.60
2018-11-11T04:58:58.731Z,93.60
2018-11-11T05:01:25.413Z,94.50
2018-11-11T05:03:52.154Z,94.70
2018-11-11T05:06:18.717Z,95.90
2018-11-11T05:08:45.776Z,95.10
2018-11-11T05:11:12.250Z,95.50
2018-11-11T05:13:38.707Z,95.20
2018-11-11T05:16:05.228Z,94.40
2018-11-11T05:18:32.219Z,93.40
2018-11-11T05:20:58.726Z,94.40
2018-11-11T05:25:57.930Z,94.20
2018-11-11T05:28:24.485Z,94.00
2018-11-11T05:30:51.288Z,94.70
2018-11-11T05:33:17.946Z,94.30
2018-11-11T05:35:44.613Z,93.30
2018-11-11T05:38:11.101Z,92.70
2018-11-11T05:40:37.794Z,93.20
2018-11-11T05:43:04.311Z,92.30
2018-11-11T05:45:30.831Z,93.70
2018-11-11T05:47:57.539Z,93.00
2018-11-11T05:50:24.103Z,93.30
2018-11-11T05:52:50.748Z,92.20
2018-11-11T05:55:17.201Z,92.60
2018-11-11T05:57:43.748Z,93.20
2018-11-11T06:00:10.238Z,93.10
2018-11-11T06:02:36.967Z,93.40
2018-11-11T06:05:03.420Z,93.30
2018-11-11T06:07:29.989Z,95.30
2018-11-11T06:09:56.584Z,95.30
2018-11-11T06:12:23.117Z,94.50
2018-11-11T06:14:49.580Z,94.40
2018-11-11T06:17:16.283Z,94.20
2018-11-11T06:19:42.892Z,93.90
2018-11-11T06:22:09.432Z,93.10
2018-11-11T06:27:08.028Z,92.30
2018-11-11T06:29:34.575Z,93.90
2018-11-11T06:32:01.237Z,94.10
2018-11-11T06:34:27.788Z,93.10
2018-11-11T06:36:54.459Z,93.30
2018-11-11T06:39:21.000Z,92.40
2018-11-11T06:41:47.660Z,92.80
2018-11-11T06:44:14.321Z,93.60
2018-11-11T06:46:40.846Z,93.20
2018-11-11T06:49:07.434Z,92.50
2018-11-11T06:51:33.912Z,92.70
2018-11-11T06:54:00.484Z,92.10
2018-11-11T06:56:27.049Z,92.10
2018-11-11T06:58:53.593Z,92.30
2018-11-11T07:01:20.112Z,92.90
2018-11-11T07:03:46.984Z,92.70
2018-11-11T07:06:13.614Z,93.20
2018-11-11T07:08:40.201Z,94.10
2018-11-11T07:11:06.778Z,94.60
2018-11-11T07:13:33.335Z,93.80
2018-11-11T07:15:59.865Z,94.10
2018-11-11T07:18:26.983Z,93.50
2018-11-11T07:20:53.775Z,93.60
2018-11-11T07:23:20.258Z,93.40
2018-11-11T07:25:47.375Z,93.70
2018-11-11T07:28:13.854Z,93.40
2018-11-11T07:30:40.353Z,93.80
2018-11-11T07:33:06.879Z,94.20
2018-11-11T07:35:34.331Z,94.80
2018-11-11T07:38:00.914Z,95.60
2018-11-11T07:40:27.532Z,95.70
2018-11-11T07:42:54.001Z,94.40
2018-11-11T07:45:20.565Z,94.10
2018-11-11T07:47:47.774Z,93.80
2018-11-11T07:50:14.498Z,93.60
2018-11-11T07:52:41.088Z,94.00
2018-11-11T07:55:07.778Z,92.60
2018-11-11T07:57:34.406Z,92.00
2018-11-11T08:00:01.512Z,91.60
2018-11-11T08:02:28.001Z,90.80
2018-11-11T08:04:54.648Z,91.20
2018-11-11T08:07:21.136Z,90.80
2018-11-11T08:09:47.643Z,90.10
2018-11-11T08:12:14.212Z,89.70
2018-11-11T08:14:41.459Z,88.70
2018-11-11T08:17:07.912Z,89.30
2018-11-11T08:19:34.394Z,89.80
2018-11-11T08:22:00.966Z,90.20
2018-11-11T08:24:27.545Z,89.20
2018-11-11T08:26:54.048Z,88.80
2018-11-11T08:29:20.594Z,88.10
2018-11-11T08:31:47.062Z,88.40
2018-11-11T08:34:13.636Z,85.80
2018-11-11T08:36:40.197Z,86.60
2018-11-11T08:39:06.691Z,87.80
2018-11-11T08:41:33.205Z,86.50
2018-11-11T08:43:59.713Z,85.00
2018-11-11T08:46:26.170Z,85.80
2018-11-11T08:48:53.658Z,84.80
2018-11-11T08:51:20.168Z,85.00
2018-11-11T08:53:46.657Z,85.40
2018-11-11T08:56:13.117Z,83.60
2018-11-11T08:58:39.598Z,83.00
2018-11-11T09:01:06.065Z,82.30
2018-11-11T09:03:32.574Z,83.00
2018-11-11T09:05:59.138Z,82.80
2018-11-11T09:08:25.672Z,80.50
2018-11-11T09:10:52.191Z,81.10
2018-11-11T09:13:18.676Z,80.50
2018-11-11T09:15:45.183Z,79.10
2018-11-11T09:18:11.701Z,79.90
2018-11-11T09:20:38.228Z,79.20
2018-11-11T09:23:04.678Z,78.80
2018-11-11T09:25:31.117Z,79.20
2018-11-11T09:27:57.720Z,79.40
2018-11-11T09:30:24.289Z,79.10
2018-11-11T09:32:50.925Z,79.50
2018-11-11T09:35:17.452Z,79.10
2018-11-11T09:37:44.449Z,78.20
2018-11-11T09:40:10.914Z,77.10
2018-11-11T09:42:37.421Z,75.10
2018-11-11T09:45:04.110Z,75.40
2018-11-11T09:47:30.564Z,75.90
2018-11-11T09:49:57.079Z,76.60
2018-11-11T09:52:23.555Z,75.80
2018-11-11T09:54:49.994Z,75.10
2018-11-11T09:57:16.652Z,72.20
2018-11-11T09:59:43.166Z,74.50
2018-11-11T10:02:09.831Z,72.10
2018-11-11T10:04:36.306Z,73.00
2018-11-11T10:07:02.865Z,72.40
2018-11-11T10:09:29.823Z,71.00
2018-11-11T10:11:56.357Z,72.40
2018-11-11T10:14:22.960Z,68.70
2018-11-11T10:16:49.484Z,70.40
2018-11-11T10:19:16.046Z,70.20
2018-11-11T10:21:42.497Z,67.80
2018-11-11T10:24:08.973Z,69.50
2018-11-11T10:26:35.447Z,67.00
2018-11-11T10:29:01.962Z,67.50
2018-11-11T10:31:28.436Z,66.70
2018-11-11T10:33:54.980Z,67.70
2018-11-11T10:36:21.456Z,64.50
2018-11-11T10:38:47.929Z,65.30
2018-11-11T10:41:14.445Z,65.00
2018-11-11T10:43:40.937Z,64.90
2018-11-11T10:46:07.530Z,65.50
2018-11-11T10:48:34.081Z,64.40
2018-11-11T10:51:00.582Z,61.90
2018-11-11T10:53:27.085Z,64.30
2018-11-11T10:55:53.669Z,62.70
2018-11-11T10:58:20.187Z,61.00
2018-11-11T11:00:46.769Z,62.60
2018-11-11T11:03:13.257Z,59.50
2018-11-11T11:05:39.730Z,60.60
2018-11-11T11:08:06.313Z,62.10
2018-11-11T11:10:32.801Z,59.40
2018-11-11T11:13:00.285Z,59.80
2018-11-11T11:15:26.890Z,59.40
2018-11-11T11:17:53.418Z,58.60
2018-11-11T11:20:19.896Z,60.40
2018-11-11T11:22:46.370Z,58.60
2018-11-11T11:25:13.025Z,59.00
2018-11-11T11:27:39.599Z,58.80
2018-11-11T11:30:06.078Z,58.20
2018-11-11T11:32:32.570Z,58.40
2018-11-11T11:34:59.020Z,57.20
2018-11-11T11:37:25.452Z,56.10
2018-11-11T11:39:51.963Z,57.20
2018-11-11T11:42:18.440Z,56.60
2018-11-11T11:44:44.972Z,58.30
2018-11-11T11:47:11.481Z,56.90
2018-11-11T11:49:38.087Z,57.70
2018-11-11T11:52:04.614Z,56.50
2018-11-11T11:54:31.932Z,57.00
2018-11-11T11:56:58.397Z,56.60
2018-11-11T11:59:25.255Z,56.40
2018-11-11T12:01:51.771Z,56.10
2018-11-11T12:04:18.412Z,56.70
2018-11-11T12:06:45.623Z,56.00
2018-11-11T12:09:12.411Z,56.70
2018-11-11T12:11:39.024Z,55.70
2018-11-11T12:14:05.497Z,55.80
2018-11-11T12:16:35.944Z,54.90
2018-11-11T12:19:02.828Z,55.60
2018-11-11T12:21:29.304Z,54.40
2018-11-11T12:23:55.807Z,55.20
2018-11-11T12:26:22.277Z,55.80
2018-11-11T12:28:48.751Z,56.40
2018-11-11T12:31:15.264Z,56.40
2018-11-11T12:33:41.961Z,56.40
2018-11-11T12:36:08.437Z,58.20
2018-11-11T12:38:35.016Z,56.40
2018-11-11T12:41:01.657Z,55.90
2018-11-11T12:43:28.123Z,57.00
2018-11-11T12:45:54.653Z,55.20
2018-11-11T12:48:21.113Z,55.80
2018-11-11T12:50:47.565Z,55.20
2018-11-11T12:53:14.125Z,54.60
2018-11-11T12:55:40.603Z,55.50
2018-11-11T12:58:07.285Z,54.20
2018-11-11T13:00:33.787Z,55.10
2018-11-11T13:03:00.291Z,55.50
2018-11-11T13:05:26.819Z,53.20
2018-11-11T13:07:53.325Z,55.10
2018-11-11T13:10:19.812Z,55.30
2018-11-11T13:12:46.521Z,55.80
2018-11-11T13:15:13.096Z,56.10
2018-11-11T13:17:39.690Z,55.80
2018-11-11T13:20:06.151Z,56.00
2018-11-11T13:22:32.659Z,55.60
2018-11-11T13:24:59.316Z,55.50
2018-11-11T13:27:26.234Z,54.10
2018-11-11T13:29:53.001Z,54.90
2018-11-11T13:32:19.509Z,54.80
2018-11-11T13:34:45.962Z,54.20
2018-11-11T13:37:14.625Z,54.70
2018-11-11T13:39:41.203Z,54.90
2018-11-11T13:42:07.676Z,55.60
2018-11-11T13:44:34.212Z,55.30
2018-11-11T13:47:02.012Z,56.30
2018-11-11T13:49:28.614Z,55.80
2018-11-11T13:51:55.642Z,56.70
2018-11-11T13:54:22.142Z,56.80
2018-11-11T13:56:48.598Z,56.70
2018-11-11T13:59:15.190Z,56.30
2018-11-11T14:01:42.149Z,57.60
2018-11-11T14:04:08.724Z,56.90
2018-11-11T14:06:35.197Z,56.60
2018-11-11T14:09:02.188Z,57.00
2018-11-11T14:11:28.642Z,55.60
2018-11-11T14:13:55.135Z,56.00
2018-11-11T14:16:21.917Z,56.40
2018-11-11T14:18:48.574Z,56.50
2018-11-11T14:21:15.149Z,55.60
2018-11-11T14:23:41.626Z,57.30
2018-11-11T14:26:08.400Z,55.80
2018-11-11T14:28:35.104Z,57.40
2018-11-11T14:31:02.529Z,58.50
2018-11-11T14:33:29.088Z,57.80
2018-11-11T14:35:55.903Z,57.70
2018-11-11T14:38:22.697Z,58.60
2018-11-11T14:40:49.359Z,58.50
2018-11-11T14:43:15.850Z,59.50
2018-11-11T14:45:42.378Z,59.70
2018-11-11T14:48:11.876Z,62.70
2018-11-11T14:50:38.352Z,62.60
2018-11-11T14:53:04.829Z,63.10
2018-11-11T14:55:31.371Z,62.50
2018-11-11T14:57:59.999Z,62.30
2018-11-11T15:00:26.679Z,62.90
2018-11-11T15:02:53.156Z,64.50
2018-11-11T15:05:19.608Z,64.40
2018-11-11T15:07:46.179Z,65.70
2018-11-11T15:10:12.797Z,65.70
2018-11-11T15:12:39.348Z,66.50
2018-11-11T15:15:05.875Z,66.50
2018-11-11T15:17:32.956Z,65.90
2018-11-11T15:19:59.539Z,68.60
2018-11-11T15:22:26.196Z,69.60
2018-11-11T15:24:53.073Z,69.90
2018-11-11T15:27:19.548Z,69.30
2018-11-11T15:29:46.168Z,69.20
2018-11-11T15:32:12.819Z,69.60
2018-11-11T15:34:39.393Z,70.50
2018-11-11T15:37:05.867Z,70.60
2018-11-11T15:39:33.216Z,72.60
2018-11-11T15:41:59.711Z,74.40
2018-11-11T15:44:26.175Z,75.10
2018-11-11T15:46:52.664Z,74.80
2018-11-11T15:49:19.133Z,77.10
2018-11-11T15:51:45.849Z,75.80
2018-11-11T15:54:12.325Z,77.10
2018-11-11T15:56:38.986Z,77.20
2018-11-11T15:59:05.737Z,77.00
2018-11-11T16:01:33.360Z,77.50
2018-11-11T16:03:59.864Z,78.20
2018-11-11T16:06:26.499Z,79.00
2018-11-11T16:08:54.341Z,78.50
2018-11-11T16:11:20.884Z,78.50
2018-11-11T16:13:48.303Z,79.30
2018-11-11T16:16:14.989Z,79.60
2018-11-11T16:18:42.953Z,79.00
2018-11-11T16:21:09.640Z,79.50
2018-11-11T16:23:36.224Z,79.20
2018-11-11T16:26:03.799Z,79.80
2018-11-11T16:28:30.292Z,78.10
2018-11-11T16:30:56.768Z,78.30
2018-11-11T16:33:23.383Z,77.10
2018-11-11T16:35:49.849Z,77.80
2018-11-11T16:38:16.628Z,79.20
2018-11-11T16:40:43.247Z,79.40
2018-11-11T16:43:09.879Z,78.20
2018-11-11T16:45:36.315Z,79.80
2018-11-11T16:48:03.971Z,81.10
2018-11-11T16:50:30.574Z,80.80
2018-11-11T16:52:57.099Z,80.90
2018-11-11T16:55:23.898Z,80.50
2018-11-11T16:57:50.524Z,82.50
2018-11-11T17:00:16.974Z,82.30
2018-11-11T17:02:43.604Z,81.90
2018-11-11T17:05:10.093Z,81.10
2018-11-11T17:07:36.568Z,82.10
2018-11-11T17:10:05.065Z,81.50
2018-11-11T17:12:31.544Z,82.70
2018-11-11T17:14:57.978Z,82.30
2018-11-11T17:17:24.474Z,80.70
2018-11-11T17:19:50.921Z,81.90
2018-11-11T17:22:18.132Z,83.10
2018-11-11T17:24:44.569Z,83.20
2018-11-11T17:27:11.122Z,83.40
2018-11-11T17:29:37.881Z,86.90
2018-11-11T17:32:04.558Z,85.80
2018-11-11T17:34:31.132Z,87.50
2018-11-11T17:36:57.608Z,85.80
2018-11-11T17:39:25.135Z,87.30
2018-11-11T17:41:51.600Z,85.70
2018-11-11T17:44:18.067Z,83.70
2018-11-11T17:46:44.559Z,84.10
2018-11-11T17:49:11.057Z,84.70
2018-11-11T17:51:37.530Z,84.70
2018-11-11T17:54:04.712Z,84.80
2018-11-11T17:56:31.347Z,85.80
2018-11-11T17:58:58.337Z,86.30
2018-11-11T18:01:24.841Z,85.10
2018-11-11T18:03:51.349Z,86.10
2018-11-11T18:06:17.935Z,86.10
2018-11-11T18:08:44.426Z,86.80
2018-11-11T18:11:10.941Z,85.20
2018-11-11T18:13:37.412Z,84.10
2018-11-11T18:16:05.044Z,85.00
2018-11-11T18:18:31.696Z,86.00
2018-11-11T18:20:58.240Z,85.40
2018-11-11T18:23:24.944Z,85.70
2018-11-11T18:25:52.166Z,85.90
2018-11-11T18:28:19.933Z,85.30
2018-11-11T18:30:46.637Z,87.50
2018-11-11T18:33:13.299Z,88.40
2018-11-11T18:35:39.919Z,89.40
2018-11-11T18:38:06.681Z,88.70
2018-11-11T18:40:33.357Z,89.20
2018-11-11T18:42:59.935Z,88.90
2018-11-11T18:45:26.585Z,86.90
2018-11-11T18:47:53.339Z,89.50
2018-11-11T18:50:20.016Z,90.10
2018-11-11T18:52:46.687Z,89.30
2018-11-11T18:55:13.518Z,90.00
2018-11-11T18:57:40.742Z,88.90
2018-11-11T19:00:12.092Z,87.00
2018-11-11T19:02:38.936Z,87.20
2018-11-11T19:05:05.654Z,89.10
2018-11-11T19:07:32.234Z,90.70
2018-11-11T19:09:59.861Z,89.80
2018-11-11T19:12:26.505Z,88.30
2018-11-11T19:14:53.254Z,87.10
2018-11-11T19:17:19.989Z,90.10
2018-11-11T19:19:46.562Z,89.30
2018-11-11T19:22:13.063Z,90.40
2018-11-11T19:24:39.742Z,90.10
2018-11-11T19:27:06.455Z,88.90
2018-11-11T19:29:33.227Z,88.90
2018-11-11T19:31:59.766Z,90.40
2018-11-11T19:34:26.467Z,89.90
2018-11-11T19:36:53.087Z,90.30
2018-11-11T19:39:19.817Z,90.10
2018-11-11T19:41:46.622Z,88.60
2018-11-11T19:44:13.570Z,89.80
2018-11-11T19:46:40.259Z,90.00
2018-11-11T19:49:06.821Z,91.30
2018-11-11T19:51:33.498Z,91.00
2018-11-11T19:54:00.240Z,90.10
2018-11-11T19:56:26.823Z,90.50
2018-11-11T19:58:53.541Z,90.20
2018-11-11T20:01:20.111Z,91.60
2018-11-11T20:03:46.647Z,92.90
2018-11-11T20:06:13.214Z,93.30
2018-11-11T20:08:39.880Z,91.60
2018-11-11T20:11:06.593Z,91.00
2018-11-11T20:13:33.506Z,90.90
2018-11-11T20:16:00.690Z,90.30
2018-11-11T20:18:27.496Z,90.40
2018-11-11T20:20:55.493Z,90.50
2018-11-11T20:23:22.249Z,90.50
2018-11-11T20:25:48.755Z,90.00
2018-11-11T20:28:15.404Z,90.00
2018-11-11T20:30:42.133Z,89.40
2018-11-11T20:33:08.626Z,90.20
2018-11-11T20:35:35.156Z,90.20
2018-11-11T20:38:02.001Z,90.70
2018-11-11T20:40:28.548Z,90.60
2018-11-11T20:42:55.159Z,90.00
2018-11-11T20:45:21.727Z,88.70
2018-11-11T20:47:48.317Z,90.20
2018-11-11T20:50:15.765Z,90.60
2018-11-11T20:52:42.431Z,90.80
2018-11-11T20:55:08.926Z,90.70
2018-11-11T20:57:36.598Z,90.30
2018-11-11T21:00:03.274Z,90.10
2018-11-11T21:02:29.929Z,90.20
2018-11-11T21:04:57.040Z,90.60
2018-11-11T21:07:23.737Z,90.40
2018-11-11T21:09:50.407Z,90.20
2018-11-11T21:12:17.136Z,90.70
2018-11-11T21:14:43.647Z,91.50
2018-11-11T21:17:10.463Z,93.80
2018-11-11T21:19:37.259Z,92.30
2018-11-11T21:22:04.109Z,93.10
2018-11-11T21:24:32.235Z,92.40
2018-11-11T21:26:58.786Z,91.30
2018-11-11T21:29:25.888Z,91.60
2018-11-11T21:31:52.613Z,91.20
2018-11-11T21:34:19.695Z,91.10
2018-11-11T21:36:46.419Z,90.10
2018-11-11T21:39:13.032Z,91.60
2018-11-11T21:41:39.797Z,92.00
2018-11-11T21:44:08.451Z,91.60
2018-11-11T21:46:35.053Z,90.70
2018-11-11T21:49:01.907Z,92.40
2018-11-11T21:51:28.441Z,93.20
2018-11-11T21:53:55.472Z,92.40
2018-11-11T21:56:22.238Z,93.60
2018-11-11T21:58:49.807Z,92.90
2018-11-11T22:01:16.417Z,93.10
2018-11-11T22:03:43.051Z,92.80
2018-11-11T22:06:09.786Z,91.90
2018-11-11T22:08:37.371Z,92.30
2018-11-11T22:11:04.079Z,91.00
2018-11-11T22:13:30.875Z,90.60
2018-11-11T22:15:57.567Z,90.30
2018-11-11T22:18:24.383Z,90.00
2018-11-11T22:20:50.990Z,92.10
2018-11-11T22:23:17.648Z,92.20
2018-11-11T22:25:44.434Z,92.90
2018-11-11T22:28:11.013Z,92.90
2018-11-11T22:30:37.876Z,92.70
2018-11-11T22:33:04.560Z,92.60
2018-11-11T22:35:32.439Z,91.00
2018-11-11T22:37:59.044Z,90.50
2018-11-11T22:40:25.611Z,91.60
2018-11-11T22:42:52.295Z,90.10
2018-11-11T22:45:18.999Z,90.10
2018-11-11T22:47:45.553Z,91.70
2018-11-11T22:50:12.307Z,90.90
2018-11-11T22:52:38.838Z,91.50
2018-11-11T22:55:05.684Z,90.80
2018-11-11T22:57:32.457Z,89.00
2018-11-11T22:59:59.152Z,88.60
2018-11-11T23:02:25.839Z,90.40
2018-11-11T23:04:52.415Z,90.80
2018-11-11T23:07:18.988Z,92.00
2018-11-11T23:09:45.531Z,93.10
2018-11-11T23:12:12.265Z,91.20
2018-11-11T23:14:39.106Z,90.80
2018-11-11T23:17:05.873Z,90.80
2018-11-11T23:19:32.457Z,90.10
2018-11-11T23:21:59.014Z,90.00
2018-11-11T23:24:25.575Z,90.70
2018-11-11T23:26:52.161Z,90.70
2018-11-11T23:29:18.709Z,91.90
2018-11-11T23:31:45.905Z,91.30
2018-11-11T23:34:12.511Z,91.40
2018-11-11T23:36:39.030Z,90.90
2018-11-11T23:39:05.577Z,91.00
2018-11-11T23:41:32.073Z,91.30
2018-11-11T23:43:58.633Z,91.80
2018-11-11T23:46:25.297Z,90.70
2018-11-11T23:48:52.049Z,92.90
2018-11-11T23:51:18.584Z,91.40
2018-11-11T23:53:45.150Z,92.50
2018-11-11T23:56:11.677Z,92.30
2018-11-11T23:58:38.720Z,92.50
